3T5

Fayette Regional Air Center Airport

La Grange, Texas, USA
METAR K3T5 171435Z AUTO 23004KT 10SM SCT014 29/25 A3007 RMK AO2 T02930246
Observed Flight Rules
Aug-17 @ 14:35 UTC (21 minutes ago) Visual Flight Rules
Wind Visibility Clouds
230° at 4 knots 10 miles
  • Scattered at 1,400' AGL
Temperatures Readings
Current 29°C / 84°F
Dewpoint 25°C / 77°F
Humidity 79%
Altimeter 30.07" Hg
Pressure 1018 hPa
Elevation 99
METAR K3T5 171435Z AUTO 23004KT 10SM SCT014 29/25 A3007 RMK AO2 T02930246
Observed Flight Rules
Aug-17 @ 14:35 UTC
(21 minutes ago)
VFR
Wind Visibility
230° at 4 knots 10 miles
Clouds
  • Scattered at 1,400' AGL
Temperature Dewpoint
29°C / 84°F 25°C / 77°F
Humidity Altimeter Pressure
79% 30.07" Hg 1018 hPa